SAVV/VDM METAR and TAF weather

Enter ICAO airport designator
Station Type Date Time Source
SAVV METAR 2018/11/27 17:35 UTC NOAA

SAVV 271735Z 29013KT 5000 TSRA SCT025 FEW030CB BKN200 22/14 Q1019


Station Type Date Time Source
SAVV Decoded METAR 2018/11/27 17:35 UTC NOAA

Viedma Aerodrome, Argentina (SAVV) 40-51S 063-01W 7M
Nov 27, 2018 - 12:35 PM EST / 2018.11.27 1735 UTC
Wind: from the WNW (290 degrees) at 15 MPH (13 KT):0
Visibility: 3 mile(s):0
Sky conditions: mostly cloudy
Weather: rain with thunder; Cumulonimbus clouds observed
Temperature: 71 F (22 C)
Dew Point: 57 F (14 C)
Relative Humidity: 60%
Pressure (altimeter): 30.09 in. Hg (1019 hPa)
ob: SAVV 271735Z 29013KT 5000 TSRA SCT025 FEW030CB BKN200 22/14 Q1019
cycle: 17

Station Type Date Time Source
SAVV TAF 2018/10/14 06:03 UTC NOAA

TAF SAVV 140500Z 1406/1506 32010KT CAVOK TX25/1419Z TN05/1410Z
TEMPO
BECMG 1412/1414 25020KT
BECMG 1422/1424 VRB05KT


Example: see airport list